Terminal Aerodrome Forecast
Issued by NWS

Home | Current Version | Previous Version | Text Only | Print | Product List | Glossary On
Versions: 1 2 3 4 5 6 7 8 9 10 11 12 13 14 15 16 17 18 19
000
FTUS43 KMQT 010500
TAFSAW
TAF
KSAW 010533Z 0106/0206 VRB03KT 5SM -DZ BR SCT007 OVC012
      TEMPO 0106/0109 BKN007
     FM010900 16004KT 4SM -DZ BR OVC003
     FM011200 17008KT 6SM -DZ BR OVC007
     FM011500 18012KT P6SM BKN012
     FM011800 19011G20KT P6SM BKN035
     FM020000 18010KT P6SM -SHRA BKN040
     FM020300 18006KT 4SM -SHRA BR OVC015
      AMD LTD TO CLD VIS AND WIND TIL 011000=

USA.gov is the U.S. government's official web portal to all federal, state and local government web resources and services.